Time;durP1;ratioP1;P1;durP2;ratioP2;P2;SDS_P1;SDS_P2;PMS_P1;PMS_P2;Temp;Humidity;BMP_temperature;BMP_pressure;BME280_temperature;BME280_humidity;BME280_pressure;Samples;Min_cycle;Max_cycle;Signal;HPM_P1;HPM_P2
2023/05/13 00:02:18;;;;;;;4.13;3.73;;;9.60;99.90;;;;;;5072271;28;20506;-79
2023/05/13 00:04:46;;;;;;;4.47;3.60;;;9.60;99.90;;;;;;5072792;28;20211;-78
2023/05/13 00:07:14;;;;;;;4.37;3.43;;;9.60;99.90;;;;;;5072148;28;20711;-76
2023/05/13 00:09:42;;;;;;;5.53;4.00;;;9.60;99.90;;;;;;5071797;28;20638;-78
2023/05/13 00:12:10;;;;;;;4.30;3.80;;;9.60;99.90;;;;;;5072691;28;20220;-78
2023/05/13 00:14:38;;;;;;;5.37;3.90;;;9.60;99.90;;;;;;5073524;28;20222;-76
2023/05/13 00:17:06;;;;;;;4.60;4.10;;;9.60;99.90;;;;;;5072481;28;20217;-76
2023/05/13 00:19:36;;;;;;;6.37;4.10;;;9.60;99.90;;;;;;5077551;28;20234;-78
2023/05/13 00:22:04;;;;;;;4.67;4.27;;;9.60;99.90;;;;;;5092475;28;20213;-79
2023/05/13 00:24:32;;;;;;;6.37;4.80;;;9.60;99.90;;;;;;5092219;28;20750;-76
2023/05/13 00:27:00;;;;;;;4.90;4.40;;;9.60;99.90;;;;;;5093171;28;20213;-78
2023/05/13 00:29:28;;;;;;;6.87;4.70;;;9.60;99.90;;;;;;5085733;28;20614;-79
2023/05/13 00:31:56;;;;;;;5.70;5.03;;;9.50;99.90;;;;;;5092184;28;20657;-78
2023/05/13 00:34:24;;;;;;;6.30;4.87;;;9.50;99.90;;;;;;5092527;28;20561;-78
2023/05/13 00:36:54;;;;;;;5.30;4.77;;;9.50;99.90;;;;;;5081914;28;20643;-78
2023/05/13 00:39:22;;;;;;;5.40;4.90;;;9.50;99.90;;;;;;5072497;28;20310;-78
2023/05/13 00:41:50;;;;;;;5.83;5.23;;;9.50;99.90;;;;;;5071977;28;20261;-73
2023/05/13 00:44:19;;;;;;;7.10;6.20;;;9.50;99.90;;;;;;5072627;28;20289;-80
2023/05/13 00:46:47;;;;;;;6.07;5.47;;;9.50;99.90;;;;;;5072080;28;20238;-79
2023/05/13 00:49:15;;;;;;;6.80;5.80;;;9.50;99.90;;;;;;5072099;28;20227;-77
2023/05/13 00:51:43;;;;;;;5.93;5.30;;;9.50;99.90;;;;;;5071694;28;20207;-78
2023/05/13 00:54:13;;;;;;;7.20;6.50;;;9.50;99.90;;;;;;5071957;28;20208;-76
2023/05/13 00:56:41;;;;;;;6.43;5.80;;;9.50;99.90;;;;;;5071696;28;20216;-79
2023/05/13 00:59:09;;;;;;;7.43;6.27;;;9.40;99.90;;;;;;5071340;28;20595;-79
2023/05/13 01:01:44;;;;;;;7.07;6.33;;;9.40;99.90;;;;;;5071955;28;20227;-77
2023/05/13 01:04:21;;;;;;;7.47;6.77;;;9.40;99.90;;;;;;5071487;28;20207;-76
2023/05/13 01:07:02;;;;;;;7.57;6.87;;;9.40;99.90;;;;;;5070156;28;20711;-75
2023/05/13 01:09:40;;;;;;;8.13;7.20;;;9.40;99.90;;;;;;5070159;28;20214;-78
2023/05/13 01:12:12;;;;;;;9.23;7.00;;;9.40;99.90;;;;;;5069467;28;20652;-76
2023/05/13 01:14:49;;;;;;;8.70;7.13;;;9.40;99.90;;;;;;5069701;28;20290;-78
2023/05/13 01:17:23;;;;;;;7.60;6.80;;;9.40;99.90;;;;;;5070247;28;20210;-77
2023/05/13 01:19:54;;;;;;;8.83;7.67;;;9.40;99.90;;;;;;5071561;28;20223;-78
2023/05/13 01:22:24;;;;;;;9.33;8.17;;;9.30;99.90;;;;;;5075378;28;20203;-80
2023/05/13 01:24:52;;;;;;;8.67;7.77;;;9.30;99.90;;;;;;5075728;28;20214;-78
2023/05/13 01:27:20;;;;;;;9.17;8.23;;;9.30;99.90;;;;;;5077016;28;20207;-78
2023/05/13 01:29:49;;;;;;;10.00;8.20;;;9.30;99.90;;;;;;5096166;28;20210;-79
2023/05/13 01:32:18;;;;;;;9.40;8.50;;;9.30;99.90;;;;;;5095746;28;20215;-78
2023/05/13 01:34:46;;;;;;;11.47;10.07;;;9.30;99.90;;;;;;5095906;28;20301;-79
2023/05/13 01:37:15;;;;;;;10.83;9.73;;;9.30;99.90;;;;;;5095953;28;20540;-79
2023/05/13 01:39:44;;;;;;;12.03;9.87;;;9.20;99.90;;;;;;5095920;28;20215;-76
2023/05/13 01:42:12;;;;;;;10.70;9.60;;;9.20;99.90;;;;;;5096062;28;20210;-78
2023/05/13 01:44:40;;;;;;;12.00;9.30;;;9.20;99.90;;;;;;5099821;28;20210;-78
2023/05/13 01:47:08;;;;;;;10.50;9.50;;;9.20;99.90;;;;;;5095825;28;20233;-78
2023/05/13 01:49:36;;;;;;;10.30;9.30;;;9.20;99.90;;;;;;5094730;28;20237;-79
2023/05/13 01:52:05;;;;;;;11.30;10.13;;;9.20;99.90;;;;;;5094204;28;20212;-78
2023/05/13 01:54:33;;;;;;;12.90;10.67;;;9.20;99.90;;;;;;5075500;28;20253;-79
2023/05/13 01:57:03;;;;;;;12.00;10.70;;;9.20;99.90;;;;;;5075259;28;20207;-77
2023/05/13 01:59:31;;;;;;;12.77;11.47;;;9.20;99.90;;;;;;5074687;28;20681;-77
2023/05/13 02:01:59;;;;;;;11.47;10.23;;;9.20;99.90;;;;;;5074766;28;20248;-76
2023/05/13 02:04:27;;;;;;;11.73;10.50;;;9.20;99.90;;;;;;5075010;28;20214;-78
2023/05/13 02:06:55;;;;;;;11.93;10.73;;;9.20;99.90;;;;;;5075079;28;20211;-79
2023/05/13 02:09:23;;;;;;;12.07;10.87;;;9.10;99.90;;;;;;5074937;28;20212;-79
2023/05/13 02:11:51;;;;;;;12.53;11.23;;;9.10;99.90;;;;;;5074304;28;20692;-76
2023/05/13 02:14:20;;;;;;;13.20;11.90;;;9.10;99.90;;;;;;5074559;28;20207;-76
2023/05/13 02:16:49;;;;;;;12.20;11.07;;;9.10;99.90;;;;;;5074628;28;20624;-77
2023/05/13 02:19:18;;;;;;;13.13;11.90;;;9.10;99.90;;;;;;5075148;28;20234;-75
2023/05/13 02:21:46;;;;;;;13.50;12.13;;;9.10;99.90;;;;;;5074361;28;20258;-74
2023/05/13 02:24:14;;;;;;;13.13;11.93;;;9.10;99.90;;;;;;5075586;28;20216;-78
2023/05/13 02:26:43;;;;;;;13.43;12.13;;;9.10;99.90;;;;;;5082259;28;20215;-80
2023/05/13 02:29:11;;;;;;;14.23;12.73;;;9.00;99.90;;;;;;5095326;28;20248;-79
2023/05/13 02:31:42;;;;;;;13.67;12.27;;;9.10;99.90;;;;;;5093396;28;20262;-78
2023/05/13 02:34:10;;;;;;;14.30;12.80;;;9.00;99.90;;;;;;5090585;28;20306;-78
2023/05/13 02:36:38;;;;;;;12.90;11.60;;;9.00;99.90;;;;;;5074541;28;20233;-77
2023/05/13 02:39:07;;;;;;;14.10;11.83;;;9.00;99.90;;;;;;5074701;28;20203;-77
2023/05/13 02:41:35;;;;;;;12.10;11.00;;;9.00;99.90;;;;;;5073965;28;20227;-79
2023/05/13 02:44:03;;;;;;;12.30;11.10;;;9.00;99.90;;;;;;5074160;28;20211;-77
2023/05/13 02:46:31;;;;;;;11.80;10.70;;;9.00;99.90;;;;;;5075282;28;20207;-77
2023/05/13 02:49:01;;;;;;;11.50;10.40;;;9.00;99.90;;;;;;5074798;28;20235;-78
2023/05/13 02:51:29;;;;;;;12.17;11.07;;;9.00;99.90;;;;;;5074245;28;20571;-78
2023/05/13 02:53:57;;;;;;;12.33;11.07;;;9.00;99.90;;;;;;5073986;28;20233;-76
2023/05/13 02:56:25;;;;;;;13.73;12.43;;;9.00;99.90;;;;;;5074593;28;20212;-76
2023/05/13 02:58:53;;;;;;;14.17;12.77;;;8.90;99.90;;;;;;5074061;28;20292;-79
2023/05/13 03:01:21;;;;;;;15.20;13.90;;;8.90;99.90;;;;;;5073876;28;20262;-75
2023/05/13 03:03:50;;;;;;;15.90;14.30;;;8.90;99.90;;;;;;5073886;28;20295;-76
2023/05/13 03:06:19;;;;;;;14.30;12.90;;;8.90;99.90;;;;;;5074316;28;20217;-76
2023/05/13 03:08:47;;;;;;;14.27;12.77;;;8.90;99.90;;;;;;5074102;28;20737;-74
2023/05/13 03:11:15;;;;;;;12.50;11.30;;;8.90;99.90;;;;;;5081863;28;20271;-76
2023/05/13 03:13:43;;;;;;;11.33;10.27;;;8.90;99.90;;;;;;5074945;28;20218;-78
2023/05/13 03:16:12;;;;;;;9.90;8.93;;;8.90;99.90;;;;;;5074044;28;20519;-76
2023/05/13 03:18:40;;;;;;;10.40;9.40;;;8.90;99.90;;;;;;5073970;28;20264;-80
2023/05/13 03:21:08;;;;;;;11.37;10.27;;;9.00;99.90;;;;;;5073174;28;20227;-79
2023/05/13 03:23:37;;;;;;;12.40;10.47;;;8.90;99.90;;;;;;5073418;28;20210;-77
2023/05/13 03:26:05;;;;;;;11.07;10.07;;;9.00;99.90;;;;;;5088055;28;20207;-79
2023/05/13 03:28:33;;;;;;;11.67;10.57;;;9.00;99.90;;;;;;5089698;28;20216;-78
2023/05/13 03:31:01;;;;;;;10.37;9.37;;;9.00;99.90;;;;;;5073660;28;20215;-80
2023/05/13 03:33:29;;;;;;;10.43;9.30;;;9.00;99.90;;;;;;5073331;28;20216;-79
2023/05/13 03:35:57;;;;;;;10.50;9.50;;;9.00;99.90;;;;;;5073457;28;20301;-78
2023/05/13 03:38:25;;;;;;;10.30;9.30;;;9.00;99.90;;;;;;5090265;28;20660;-79
2023/05/13 03:40:55;;;;;;;11.00;9.43;;;9.00;99.90;;;;;;5093246;28;20214;-77
2023/05/13 03:43:23;;;;;;;10.33;9.43;;;8.90;99.90;;;;;;5093099;28;20210;-80
2023/05/13 03:45:51;;;;;;;10.63;9.53;;;9.00;99.90;;;;;;5087430;28;20207;-76
2023/05/13 03:48:19;;;;;;;11.27;9.87;;;8.90;99.90;;;;;;5072778;28;20258;-79
2023/05/13 03:50:47;;;;;;;11.77;10.57;;;8.90;99.90;;;;;;5072867;28;20249;-79
2023/05/13 03:53:16;;;;;;;12.07;10.87;;;8.90;99.90;;;;;;5072372;28;20273;-79
2023/05/13 03:55:45;;;;;;;12.43;11.23;;;8.90;99.90;;;;;;5088456;28;20211;-78
2023/05/13 03:58:16;;;;;;;14.03;12.20;;;8.90;99.90;;;;;;5093380;28;20210;-79
2023/05/13 04:00:46;;;;;;;13.63;12.33;;;9.00;99.90;;;;;;5093539;28;20203;-77
2023/05/13 04:03:14;;;;;;;13.40;12.00;;;8.90;99.90;;;;;;5080518;28;20339;-77
2023/05/13 04:05:43;;;;;;;12.10;10.90;;;8.90;99.90;;;;;;5073301;28;20226;-79
2023/05/13 04:08:11;;;;;;;11.00;9.90;;;8.90;99.90;;;;;;5073180;28;20563;-79
2023/05/13 04:10:39;;;;;;;10.30;9.30;;;8.90;99.90;;;;;;5072696;28;20245;-78
2023/05/13 04:13:07;;;;;;;9.67;8.77;;;9.00;99.90;;;;;;5090427;28;20664;-79
2023/05/13 04:15:37;;;;;;;9.67;8.77;;;9.00;99.90;;;;;;5093066;28;20221;-79
2023/05/13 04:18:05;;;;;;;9.10;8.20;;;8.90;99.90;;;;;;5092790;28;20238;-78
2023/05/13 04:20:33;;;;;;;9.90;8.90;;;9.00;99.90;;;;;;5092180;28;20718;-76
2023/05/13 04:23:02;;;;;;;8.70;7.90;;;9.00;99.90;;;;;;5072731;28;20228;-78
2023/05/13 04:25:30;;;;;;;10.47;8.03;;;9.00;99.90;;;;;;5092813;28;20207;-79
2023/05/13 04:27:58;;;;;;;8.40;7.60;;;9.00;99.90;;;;;;5094051;28;20199;-80
2023/05/13 04:30:26;;;;;;;8.37;7.50;;;9.00;99.90;;;;;;5086689;28;20207;-77
2023/05/13 04:32:56;;;;;;;8.50;7.60;;;9.00;99.90;;;;;;5076489;28;20291;-77
2023/05/13 04:35:24;;;;;;;10.50;8.87;;;9.00;99.90;;;;;;5073603;28;20218;-78
2023/05/13 04:37:52;;;;;;;9.80;8.80;;;8.90;99.90;;;;;;5072780;28;20207;-79
2023/05/13 04:40:20;;;;;;;10.43;9.13;;;8.90;99.90;;;;;;5072363;28;20215;-79
2023/05/13 04:42:53;;;;;;;10.63;9.53;;;8.90;99.90;;;;;;5073572;28;20633;-77
2023/05/13 04:45:22;;;;;;;10.67;9.10;;;8.90;99.90;;;;;;5072401;28;20225;-77
2023/05/13 04:47:50;;;;;;;10.33;9.23;;;8.90;99.90;;;;;;5072360;28;20242;-77
2023/05/13 04:50:19;;;;;;;10.27;9.03;;;8.90;99.90;;;;;;5072276;28;20257;-79
2023/05/13 04:52:48;;;;;;;9.80;8.80;;;8.90;99.90;;;;;;5071791;28;20214;-79
2023/05/13 04:55:16;;;;;;;11.67;9.60;;;8.80;99.90;;;;;;5071843;28;20212;-75
2023/05/13 04:57:44;;;;;;;11.70;8.83;;;8.80;99.90;;;;;;5072550;28;20212;-79
2023/05/13 05:00:14;;;;;;;11.33;9.30;;;8.80;99.90;;;;;;5076781;28;20251;-78
2023/05/13 05:02:42;;;;;;;10.17;8.97;;;8.80;99.90;;;;;;5091395;28;20226;-76
2023/05/13 05:05:10;;;;;;;10.77;9.37;;;8.80;99.90;;;;;;5092278;28;20557;-77
2023/05/13 05:07:40;;;;;;;10.23;9.03;;;8.80;99.90;;;;;;5091926;28;20206;-79
2023/05/13 05:10:09;;;;;;;10.50;8.97;;;8.80;99.90;;;;;;5084720;28;20234;-78
2023/05/13 05:12:37;;;;;;;10.37;9.27;;;8.80;99.90;;;;;;5071063;28;20217;-80
2023/05/13 05:15:14;;;;;;;12.53;8.83;;;8.90;99.90;;;;;;5074837;28;20532;-77
2023/05/13 05:17:42;;;;;;;10.13;9.13;;;8.80;99.90;;;;;;5091443;28;20272;-79
2023/05/13 05:20:12;;;;;;;10.13;9.00;;;8.90;99.90;;;;;;5091803;28;20242;-76
2023/05/13 05:22:41;;;;;;;12.57;9.07;;;8.90;99.90;;;;;;5091939;28;20313;-77
2023/05/13 05:25:10;;;;;;;10.40;8.90;;;8.90;99.90;;;;;;5079509;28;20218;-80
2023/05/13 05:27:39;;;;;;;9.97;9.03;;;8.90;99.90;;;;;;5072464;28;20284;-79
2023/05/13 05:30:10;;;;;;;10.03;9.03;;;9.00;99.90;;;;;;5071462;28;20297;-79
2023/05/13 05:32:38;;;;;;;10.00;9.00;;;9.00;99.90;;;;;;5082776;28;20245;-77
2023/05/13 05:35:07;;;;;;;10.03;8.90;;;9.00;99.90;;;;;;5092384;28;20211;-77
2023/05/13 05:37:35;;;;;;;9.70;8.80;;;9.10;99.90;;;;;;5091783;28;20214;-79
2023/05/13 05:40:06;;;;;;;10.10;9.03;;;9.10;99.90;;;;;;5092306;28;20291;-78
2023/05/13 05:42:34;;;;;;;10.53;8.87;;;9.10;99.90;;;;;;5074661;28;20223;-76
2023/05/13 05:45:02;;;;;;;10.40;9.30;;;9.00;99.90;;;;;;5089603;28;20206;-75
2023/05/13 05:47:30;;;;;;;10.30;9.30;;;9.00;99.90;;;;;;5090568;28;20290;-76
2023/05/13 05:49:58;;;;;;;10.93;9.40;;;9.00;99.90;;;;;;5090232;28;20210;-76
2023/05/13 05:52:26;;;;;;;9.97;8.53;;;9.00;99.90;;;;;;5089913;28;20191;-75
2023/05/13 05:54:54;;;;;;;9.87;8.53;;;9.00;99.90;;;;;;5091233;28;20752;-76
2023/05/13 05:57:24;;;;;;;10.07;8.73;;;9.10;99.90;;;;;;5091008;28;20210;-77
2023/05/13 05:59:52;;;;;;;9.53;8.60;;;9.10;99.90;;;;;;5088453;28;20210;-76
2023/05/13 06:02:20;;;;;;;9.73;8.73;;;9.10;99.90;;;;;;5091013;28;20314;-77
2023/05/13 06:04:48;;;;;;;8.97;8.07;;;9.10;99.90;;;;;;5091450;28;20199;-74
2023/05/13 06:07:16;;;;;;;11.40;8.60;;;9.10;99.90;;;;;;5092297;28;20282;-79
2023/05/13 06:09:45;;;;;;;9.43;8.40;;;9.20;99.90;;;;;;5093663;28;20309;-78
2023/05/13 06:12:13;;;;;;;9.47;8.53;;;9.20;99.90;;;;;;5094208;28;20298;-78
2023/05/13 06:14:42;;;;;;;9.37;8.43;;;9.20;99.90;;;;;;5095110;28;20222;-75
2023/05/13 06:17:13;;;;;;;8.87;7.97;;;9.30;99.90;;;;;;5092428;28;20302;-79
2023/05/13 06:19:41;;;;;;;9.33;7.73;;;9.40;99.90;;;;;;5094675;28;20210;-76
2023/05/13 06:22:10;;;;;;;8.07;7.20;;;9.40;99.90;;;;;;5094248;28;20210;-76
2023/05/13 06:24:41;;;;;;;8.20;7.37;;;9.40;99.90;;;;;;5092736;28;20218;-75
2023/05/13 06:27:10;;;;;;;7.80;6.93;;;9.40;99.90;;;;;;5091655;28;20588;-73
2023/05/13 06:29:38;;;;;;;8.20;6.83;;;9.50;99.90;;;;;;5093253;28;20216;-74
2023/05/13 06:32:08;;;;;;;7.30;6.60;;;9.60;99.90;;;;;;5094323;28;20210;-75
2023/05/13 06:34:37;;;;;;;6.80;6.20;;;9.70;99.90;;;;;;5091142;28;20233;-77
2023/05/13 06:37:05;;;;;;;6.63;5.90;;;9.80;99.90;;;;;;5095442;28;20203;-76
2023/05/13 06:39:33;;;;;;;6.77;5.90;;;9.80;99.90;;;;;;5095368;28;20218;-78
2023/05/13 06:42:01;;;;;;;6.97;5.70;;;9.90;99.90;;;;;;5083506;28;20210;-77
2023/05/13 06:44:29;;;;;;;5.87;5.27;;;10.00;99.90;;;;;;5075173;28;20259;-74
2023/05/13 06:47:01;;;;;;;6.00;5.40;;;10.10;99.90;;;;;;5075172;28;20208;-76
2023/05/13 06:49:32;;;;;;;6.93;5.20;;;9.90;99.90;;;;;;5091850;28;20227;-73
2023/05/13 06:52:00;;;;;;;5.80;4.90;;;9.80;99.90;;;;;;5094031;28;20688;-75
2023/05/13 06:54:29;;;;;;;5.70;5.10;;;9.80;99.90;;;;;;5095426;28;20203;-75
2023/05/13 06:56:57;;;;;;;5.30;4.70;;;9.80;99.90;;;;;;5085546;28;20650;-78
2023/05/13 06:59:25;;;;;;;6.67;5.20;;;9.80;99.90;;;;;;5074961;28;20203;-74
2023/05/13 07:01:53;;;;;;;5.53;4.90;;;9.90;99.90;;;;;;5074956;28;20263;-75
2023/05/13 07:04:21;;;;;;;5.07;4.57;;;9.90;99.90;;;;;;5092965;28;20217;-76
2023/05/13 07:06:51;;;;;;;4.90;4.07;;;10.00;99.90;;;;;;5092592;28;20214;-72
2023/05/13 07:09:19;;;;;;;5.00;4.50;;;10.00;99.90;;;;;;5082017;28;20214;-75
2023/05/13 07:11:47;;;;;;;5.63;4.77;;;10.20;99.90;;;;;;5075130;28;20219;-78
2023/05/13 07:14:15;;;;;;;4.50;4.10;;;10.30;99.90;;;;;;5075199;28;20735;-75
2023/05/13 07:16:43;;;;;;;5.43;4.93;;;10.40;99.90;;;;;;5075653;28;20218;-76
2023/05/13 07:19:11;;;;;;;5.10;4.23;;;10.50;99.90;;;;;;5079676;28;20290;-74
2023/05/13 07:21:39;;;;;;;4.80;4.30;;;10.40;99.90;;;;;;5096862;28;20202;-77
2023/05/13 07:24:08;;;;;;;4.30;3.90;;;10.20;99.90;;;;;;5094523;28;20215;-78
2023/05/13 07:26:37;;;;;;;7.17;4.73;;;10.20;99.90;;;;;;5093049;28;20352;-77
2023/05/13 07:29:06;;;;;;;5.47;4.67;;;10.30;99.90;;;;;;5088083;28;20199;-75
2023/05/13 07:31:34;;;;;;;5.07;4.57;;;10.40;99.90;;;;;;5093509;28;20297;-74
2023/05/13 07:34:02;;;;;;;4.93;4.27;;;10.40;99.90;;;;;;5092335;28;20230;-75
2023/05/13 07:36:30;;;;;;;5.00;4.37;;;10.40;99.90;;;;;;5093476;28;20211;-74
2023/05/13 07:38:58;;;;;;;5.50;4.80;;;10.60;99.90;;;;;;5092927;28;20207;-74
2023/05/13 07:41:28;;;;;;;4.73;4.30;;;10.70;99.90;;;;;;5093771;28;20213;-76
2023/05/13 07:43:56;;;;;;;4.53;4.13;;;10.70;99.90;;;;;;5092793;28;20233;-77
2023/05/13 07:46:24;;;;;;;4.57;4.10;;;10.60;99.90;;;;;;5091505;28;20205;-75
2023/05/13 07:48:52;;;;;;;4.57;4.17;;;10.60;99.90;;;;;;5073613;28;20701;-74
2023/05/13 07:51:20;;;;;;;5.73;5.13;;;10.60;99.90;;;;;;5073151;28;20293;-75
2023/05/13 07:53:50;;;;;;;6.10;5.33;;;10.60;99.90;;;;;;5073044;28;20206;-74
2023/05/13 07:56:18;;;;;;;6.07;5.07;;;10.50;99.90;;;;;;5072933;28;20235;-78
2023/05/13 07:58:49;;;;;;;6.37;5.63;;;10.50;99.90;;;;;;5072877;28;20213;-77
2023/05/13 08:01:17;;;;;;;6.13;5.53;;;10.50;99.90;;;;;;5072270;28;20219;-76
2023/05/13 08:03:45;;;;;;;5.97;5.37;;;10.50;99.90;;;;;;5072198;28;20314;-74
2023/05/13 08:06:13;;;;;;;5.70;5.10;;;10.50;99.90;;;;;;5072330;28;20772;-77
2023/05/13 08:08:41;;;;;;;6.93;5.40;;;10.70;99.90;;;;;;5072859;28;20214;-75
2023/05/13 08:11:09;;;;;;;6.47;5.37;;;10.70;99.90;;;;;;5072495;28;20215;-78
2023/05/13 08:13:38;;;;;;;8.47;5.53;;;10.60;99.90;;;;;;5072100;28;20229;-77
2023/05/13 08:16:08;;;;;;;5.57;5.00;;;10.70;99.90;;;;;;5073006;28;20207;-78
2023/05/13 08:18:36;;;;;;;5.97;5.20;;;10.80;99.90;;;;;;5084412;28;20207;-77
2023/05/13 08:21:04;;;;;;;6.70;4.93;;;10.70;99.90;;;;;;5086919;28;20207;-77
2023/05/13 08:23:32;;;;;;;5.70;5.10;;;10.70;99.90;;;;;;5071776;28;20302;-77
2023/05/13 08:26:11;;;;;;;6.60;5.77;;;10.60;99.90;;;;;;5073047;28;20196;-76
2023/05/13 08:28:39;;;;;;;6.97;5.50;;;10.50;99.90;;;;;;5075256;28;20199;-77
2023/05/13 08:31:11;;;;;;;6.27;5.67;;;10.50;99.90;;;;;;5092771;28;20234;-76
2023/05/13 08:33:40;;;;;;;6.57;5.73;;;10.60;99.90;;;;;;5092439;28;20657;-74
2023/05/13 08:36:09;;;;;;;7.10;5.97;;;10.60;99.90;;;;;;5090916;28;20207;-77
2023/05/13 08:38:37;;;;;;;6.63;5.50;;;10.70;99.90;;;;;;5092889;28;20652;-75
2023/05/13 08:41:05;;;;;;;6.43;5.50;;;10.70;99.90;;;;;;5092676;28;20219;-76
2023/05/13 08:43:33;;;;;;;6.70;5.97;;;10.60;99.90;;;;;;5092541;28;20206;-74
2023/05/13 08:46:03;;;;;;;6.33;5.73;;;10.50;99.90;;;;;;5078103;28;20214;-76
2023/05/13 08:48:34;;;;;;;6.63;5.90;;;10.50;99.90;;;;;;5072456;28;20220;-74
2023/05/13 08:51:03;;;;;;;7.40;5.60;;;10.70;99.90;;;;;;5072169;28;20218;-76
2023/05/13 08:53:31;;;;;;;5.80;5.20;;;11.10;99.90;;;;;;5090563;28;20221;-75
2023/05/13 08:56:00;;;;;;;5.73;5.13;;;11.40;99.90;;;;;;5084584;28;20210;-75
2023/05/13 08:58:28;;;;;;;6.23;4.70;;;11.70;99.90;;;;;;5092076;28;20207;-74
2023/05/13 09:00:56;;;;;;;6.30;4.60;;;12.20;99.90;;;;;;5078194;28;20556;-77
2023/05/13 09:03:27;;;;;;;4.73;4.20;;;12.70;99.90;;;;;;5072401;28;20222;-76
2023/05/13 09:06:00;;;;;;;4.13;3.73;;;13.00;99.90;;;;;;5073198;28;20704;-78
2023/05/13 09:08:29;;;;;;;4.97;3.60;;;13.10;99.90;;;;;;5074312;28;20626;-76
2023/05/13 09:10:57;;;;;;;3.57;3.13;;;12.90;99.90;;;;;;5092745;28;20736;-75
2023/05/13 09:13:25;;;;;;;3.93;3.03;;;12.70;99.90;;;;;;5092677;28;20242;-77
2023/05/13 09:15:53;;;;;;;3.27;2.97;;;12.40;99.90;;;;;;5088996;28;20214;-78
2023/05/13 09:18:21;;;;;;;3.10;2.80;;;12.30;99.90;;;;;;5089188;28;20652;-75
2023/05/13 09:20:50;;;;;;;3.20;2.90;;;12.10;99.90;;;;;;5092011;28;20203;-77
2023/05/13 09:23:19;;;;;;;3.70;3.27;;;12.00;99.90;;;;;;5092426;28;20294;-77
2023/05/13 09:25:48;;;;;;;4.50;3.30;;;11.70;99.90;;;;;;5090540;28;20230;-75
2023/05/13 09:28:16;;;;;;;3.50;3.10;;;11.60;99.90;;;;;;5091153;28;20238;-78
2023/05/13 09:30:44;;;;;;;2.60;2.40;;;11.70;99.90;;;;;;5092377;28;20229;-73
2023/05/13 09:33:15;;;;;;;2.70;2.50;;;11.60;99.90;;;;;;5091878;28;20207;-73
2023/05/13 09:35:45;;;;;;;2.53;2.33;;;11.70;99.90;;;;;;5091789;28;20218;-79
2023/05/13 09:38:15;;;;;;;2.57;2.27;;;11.80;99.90;;;;;;5086773;28;20672;-76
2023/05/13 09:40:51;;;;;;;2.93;2.30;;;11.80;99.90;;;;;;5093526;28;20277;-76
2023/05/13 09:43:21;;;;;;;2.50;2.30;;;12.00;99.90;;;;;;5093618;28;20195;-75
2023/05/13 09:45:53;;;;;;;2.60;2.40;;;12.10;99.90;;;;;;5091048;28;20223;-75
2023/05/13 09:48:22;;;;;;;2.70;2.33;;;12.30;99.90;;;;;;5080366;28;20223;-73
2023/05/13 09:50:51;;;;;;;3.13;2.27;;;12.40;99.90;;;;;;5095974;28;20222;-73
2023/05/13 09:53:20;;;;;;;3.93;2.20;;;12.50;99.90;;;;;;5089762;28;20208;-75
2023/05/13 09:55:48;;;;;;;2.53;2.30;;;12.50;99.90;;;;;;5084780;28;20277;-75
2023/05/13 09:58:19;;;;;;;2.70;2.50;;;12.30;99.90;;;;;;5095292;28;20202;-79
2023/05/13 10:00:47;;;;;;;2.50;2.30;;;12.20;99.90;;;;;;5080278;28;20570;-77
2023/05/13 10:03:16;;;;;;;2.27;2.07;;;12.10;99.90;;;;;;5094543;28;20692;-74
2023/05/13 10:05:45;;;;;;;2.80;2.47;;;12.10;99.90;;;;;;5095243;28;20692;-77
2023/05/13 10:08:14;;;;;;;2.60;2.40;;;12.20;99.90;;;;;;5092678;28;20661;-76
2023/05/13 10:10:44;;;;;;;2.93;2.60;;;12.30;99.90;;;;;;5074279;28;20208;-74
2023/05/13 10:13:15;;;;;;;3.13;2.13;;;12.50;99.90;;;;;;5075435;28;20207;-75
2023/05/13 10:15:49;;;;;;;4.30;3.13;;;12.60;99.90;;;;;;5085565;28;20225;-75
2023/05/13 10:18:18;;;;;;;4.70;3.40;;;12.70;99.90;;;;;;5079643;28;20207;-76
2023/05/13 10:20:51;;;;;;;4.17;3.23;;;13.00;99.90;;;;;;5075885;28;20230;-75
2023/05/13 10:23:20;;;;;;;3.40;2.00;;;13.30;99.90;;;;;;5077050;28;20681;-75
2023/05/13 10:25:48;;;;;;;1.90;1.80;;;13.50;99.90;;;;;;5077391;28;20251;-74
2023/05/13 10:28:16;;;;;;;1.80;1.70;;;13.80;99.90;;;;;;5076662;28;20208;-74
2023/05/13 10:30:46;;;;;;;1.83;1.73;;;14.00;99.90;;;;;;5078771;28;20211;-74
2023/05/13 10:33:16;;;;;;;2.00;1.90;;;14.00;99.90;;;;;;5077604;28;20670;-76
2023/05/13 10:36:01;;;;;;;2.50;2.10;;;13.70;99.90;;;;;;5077497;28;20199;-75
2023/05/13 10:38:44;;;;;;;2.07;1.90;;;13.40;99.90;;;;;;5078264;28;20218;-77
2023/05/13 10:41:25;;;;;;;3.30;1.90;;;13.20;99.90;;;;;;5079306;28;20203;-73
2023/05/13 10:43:57;;;;;;;2.67;1.83;;;13.10;99.90;;;;;;5079973;28;20245;-74
2023/05/13 10:46:27;;;;;;;2.30;2.10;;;13.00;99.90;;;;;;5095849;28;20865;-74
2023/05/13 10:48:58;;;;;;;4.00;1.97;;;12.90;99.90;;;;;;5095472;28;20217;-73
2023/05/13 10:51:27;;;;;;;2.03;1.93;;;12.90;99.90;;;;;;5094961;28;20195;-73
2023/05/13 10:53:57;;;;;;;2.87;1.70;;;13.10;99.90;;;;;;5087941;28;20286;-75
2023/05/13 10:56:27;;;;;;;2.00;1.90;;;13.30;99.90;;;;;;5075587;28;20239;-76
2023/05/13 10:59:00;;;;;;;2.63;1.90;;;13.50;99.90;;;;;;5075053;28;20215;-72
2023/05/13 11:01:33;;;;;;;2.63;1.73;;;13.80;99.90;;;;;;5075676;28;20207;-75
2023/05/13 11:04:03;;;;;;;1.80;1.70;;;13.80;99.90;;;;;;5076887;28;20733;-75
2023/05/13 11:06:35;;;;;;;1.83;1.73;;;13.60;99.90;;;;;;5074803;28;20270;-77
2023/05/13 11:09:06;;;;;;;1.80;1.70;;;13.40;99.90;;;;;;5074457;28;20715;-77
2023/05/13 11:11:35;;;;;;;1.83;1.73;;;13.40;99.90;;;;;;5077385;28;20577;-72
2023/05/13 11:14:08;;;;;;;2.20;1.80;;;13.10;99.90;;;;;;5095103;28;20211;-74
2023/05/13 11:16:38;;;;;;;1.70;1.60;;;13.20;99.90;;;;;;5094814;28;20298;-75
2023/05/13 11:19:19;;;;;;;1.67;1.57;;;13.40;99.90;;;;;;5093410;28;20215;-76
2023/05/13 11:21:51;;;;;;;1.67;1.57;;;13.70;99.90;;;;;;5073856;28;20218;-76
2023/05/13 11:24:21;;;;;;;2.03;1.83;;;13.60;99.90;;;;;;5074790;28;20848;-77
2023/05/13 11:26:51;;;;;;;1.90;1.80;;;13.60;99.90;;;;;;5074458;28;20227;-76
2023/05/13 11:29:28;;;;;;;2.03;1.80;;;13.90;99.90;;;;;;5074703;28;20257;-75
2023/05/13 11:31:59;;;;;;;1.77;1.67;;;14.10;99.90;;;;;;5075908;28;20290;-77
2023/05/13 11:34:28;;;;;;;2.70;1.70;;;14.20;99.90;;;;;;5074040;28;20192;-75
2023/05/13 11:37:06;;;;;;;1.70;1.60;;;14.20;99.90;;;;;;5075603;28;20210;-76
2023/05/13 11:39:35;;;;;;;2.90;1.90;;;14.20;99.90;;;;;;5073710;28;20207;-77
2023/05/13 11:42:07;;;;;;;3.70;1.80;;;14.60;99.90;;;;;;5074502;28;20660;-75
2023/05/13 11:44:36;;;;;;;1.90;1.80;;;14.90;99.90;;;;;;5074411;28;20258;-74
2023/05/13 11:47:07;;;;;;;1.80;1.70;;;15.20;99.90;;;;;;5073588;28;20234;-75
2023/05/13 11:49:38;;;;;;;1.67;1.57;;;15.40;99.90;;;;;;5073950;28;20306;-75
2023/05/13 11:52:09;;;;;;;2.83;1.67;;;15.40;99.90;;;;;;5073941;28;20287;-78
2023/05/13 11:54:46;;;;;;;1.63;1.53;;;15.70;99.90;;;;;;5075973;28;20253;-75
2023/05/13 11:57:22;;;;;;;1.83;1.73;;;15.70;99.90;;;;;;5076131;28;20576;-77
2023/05/13 11:59:57;;;;;;;2.23;2.03;;;15.00;99.90;;;;;;5076212;28;20724;-72
2023/05/13 12:02:28;;;;;;;1.90;1.80;;;14.70;99.90;;;;;;5075711;28;20218;-75
2023/05/13 12:05:00;;;;;;;2.10;2.00;;;14.60;99.90;;;;;;5073815;28;20211;-75
2023/05/13 12:07:28;;;;;;;2.13;1.50;;;14.50;99.90;;;;;;5073579;28;20222;-75
2023/05/13 12:09:58;;;;;;;2.17;1.97;;;14.50;99.90;;;;;;5073370;28;20238;-76
2023/05/13 12:12:27;;;;;;;1.90;1.80;;;14.50;99.90;;;;;;5078434;28;20480;-75
2023/05/13 12:14:56;;;;;;;2.10;1.97;;;14.20;99.90;;;;;;5093892;28;20718;-74
2023/05/13 12:17:26;;;;;;;2.10;2.00;;;14.30;99.90;;;;;;5094236;28;20240;-76
2023/05/13 12:20:08;;;;;;;2.60;2.00;;;14.20;99.90;;;;;;5075939;28;20291;-76
2023/05/13 12:22:37;;;;;;;2.40;2.20;;;14.30;99.90;;;;;;5074764;28;20234;-76
2023/05/13 12:25:42;;;;;;;2.20;2.00;;;14.40;99.90;;;;;;5077347;28;20207;-78
2023/05/13 12:28:15;;;;;;;2.50;1.93;;;14.40;99.90;;;;;;5072942;28;20203;-77
2023/05/13 12:30:50;;;;;;;1.97;1.87;;;14.20;99.90;;;;;;5073478;28;20429;-77
2023/05/13 12:33:21;;;;;;;2.20;2.10;;;14.20;99.90;;;;;;5072286;28;20216;-77
2023/05/13 12:35:51;;;;;;;1.80;1.70;;;14.10;99.90;;;;;;5072702;28;20656;-78
2023/05/13 12:38:20;;;;;;;1.80;1.70;;;14.20;99.90;;;;;;5073090;28;20222;-78
2023/05/13 12:40:50;;;;;;;2.20;2.00;;;14.20;99.90;;;;;;5072714;28;20745;-78
2023/05/13 12:43:19;;;;;;;2.40;2.20;;;14.20;99.90;;;;;;5072614;28;20213;-79
2023/05/13 12:45:52;;;;;;;2.77;2.00;;;14.20;99.90;;;;;;5072677;28;20251;-77
2023/05/13 12:48:25;;;;;;;2.17;2.07;;;14.30;99.90;;;;;;5072521;28;20210;-76
2023/05/13 12:50:55;;;;;;;2.40;2.20;;;14.40;99.90;;;;;;5072979;28;20211;-77
2023/05/13 12:53:23;;;;;;;2.13;1.93;;;14.50;99.90;;;;;;5073624;28;20214;-77
2023/05/13 12:55:51;;;;;;;2.43;1.90;;;14.70;99.90;;;;;;5074151;28;20271;-75
2023/05/13 12:58:19;;;;;;;2.00;1.90;;;14.70;99.90;;;;;;5072831;28;20630;-79
2023/05/13 13:00:48;;;;;;;4.47;2.17;;;14.80;99.90;;;;;;5072344;28;20207;-77